createdAt,value
2022-10-17T00:00:44.956Z,10.80
2022-10-17T00:03:12.275Z,10.80
2022-10-17T00:05:45.320Z,10.80
2022-10-17T00:08:14.297Z,10.80
2022-10-17T00:10:42.165Z,10.80
2022-10-17T00:13:09.673Z,10.80
2022-10-17T00:15:36.968Z,10.80
2022-10-17T00:18:04.500Z,10.70
2022-10-17T00:20:33.035Z,10.70
2022-10-17T00:23:00.883Z,10.70
2022-10-17T00:25:28.137Z,10.70
2022-10-17T00:27:55.221Z,10.70
2022-10-17T00:30:22.438Z,10.70
2022-10-17T00:32:49.445Z,10.60
2022-10-17T00:35:16.564Z,10.60
2022-10-17T00:37:43.629Z,10.60
2022-10-17T00:40:11.482Z,10.60
2022-10-17T00:42:39.073Z,10.60
2022-10-17T00:45:23.682Z,10.50
2022-10-17T00:48:04.985Z,10.50
2022-10-17T00:50:33.274Z,10.50
2022-10-17T00:53:03.016Z,10.50
2022-10-17T00:55:35.204Z,10.40
2022-10-17T00:58:04.862Z,10.40
2022-10-17T01:00:32.457Z,10.40
2022-10-17T01:02:59.640Z,10.40
2022-10-17T01:05:26.864Z,10.40
2022-10-17T01:07:54.757Z,10.50
2022-10-17T01:13:08.666Z,10.60
2022-10-17T01:15:41.228Z,10.60
2022-10-17T01:18:20.078Z,10.70
2022-10-17T01:20:56.152Z,10.70
2022-10-17T01:24:01.509Z,10.70
2022-10-17T01:26:37.383Z,10.70
2022-10-17T01:29:52.976Z,10.80
2022-10-17T01:32:29.611Z,10.90
2022-10-17T01:35:02.990Z,10.90
2022-10-17T01:37:38.603Z,10.90
2022-10-17T01:40:28.628Z,10.90
2022-10-17T01:43:07.091Z,10.90
2022-10-17T01:45:41.712Z,10.90
2022-10-17T01:48:15.066Z,10.80
2022-10-17T01:50:47.586Z,10.80
2022-10-17T01:53:20.622Z,10.80
2022-10-17T01:55:50.529Z,10.80
2022-10-17T01:58:33.294Z,10.70
2022-10-17T02:01:04.833Z,10.70
2022-10-17T02:03:32.800Z,10.70
2022-10-17T02:06:00.594Z,10.70
2022-10-17T02:08:30.646Z,10.80
2022-10-17T02:11:04.097Z,10.80
2022-10-17T02:13:50.010Z,10.80
2022-10-17T02:16:42.440Z,10.80
2022-10-17T02:19:29.112Z,10.80
2022-10-17T02:22:18.498Z,10.80
2022-10-17T02:25:05.185Z,10.70
2022-10-17T02:27:56.539Z,10.80
2022-10-17T02:30:47.756Z,10.80
2022-10-17T02:33:24.019Z,10.80
2022-10-17T02:35:55.513Z,10.80
2022-10-17T02:38:23.581Z,10.80
2022-10-17T02:40:54.081Z,10.80
2022-10-17T02:43:22.833Z,10.80
2022-10-17T02:45:51.402Z,10.80
2022-10-17T02:48:39.562Z,10.80
2022-10-17T02:51:33.020Z,10.80
2022-10-17T02:54:00.591Z,10.70
2022-10-17T02:56:31.374Z,10.70
2022-10-17T02:59:00.365Z,10.60
2022-10-17T03:01:29.741Z,10.60
2022-10-17T03:04:12.166Z,10.60
2022-10-17T03:06:40.676Z,10.60
2022-10-17T03:09:08.728Z,10.60
2022-10-17T03:11:35.844Z,10.60
2022-10-17T03:14:02.984Z,10.60
2022-10-17T03:16:30.159Z,10.60
2022-10-17T03:18:57.183Z,10.60
2022-10-17T03:21:24.240Z,10.60
2022-10-17T03:23:51.305Z,10.60
2022-10-17T03:26:18.534Z,10.60
2022-10-17T03:28:46.866Z,10.50
2022-10-17T03:31:17.394Z,10.50
2022-10-17T03:33:44.561Z,10.50
2022-10-17T03:36:17.512Z,10.40
2022-10-17T03:38:45.303Z,10.40
2022-10-17T03:41:12.921Z,10.30
2022-10-17T03:43:40.514Z,10.30
2022-10-17T03:46:07.943Z,10.20
2022-10-17T03:48:35.369Z,10.20
2022-10-17T03:51:05.619Z,10.20
2022-10-17T03:53:33.247Z,10.10
2022-10-17T03:56:14.300Z,10.20
2022-10-17T03:58:42.307Z,10.10
2022-10-17T04:01:12.181Z,10.10
2022-10-17T04:03:40.989Z,10.10
2022-10-17T04:06:11.293Z,10.10
2022-10-17T04:08:38.824Z,10.10
2022-10-17T04:11:07.893Z,10.10
2022-10-17T04:13:35.249Z,10.10
2022-10-17T04:16:06.302Z,10.00
2022-10-17T04:18:34.069Z,10.00
2022-10-17T04:21:05.864Z,10.00
2022-10-17T04:23:33.803Z,10.00
2022-10-17T04:26:03.526Z,9.90
2022-10-17T04:28:32.345Z,9.90
2022-10-17T04:31:01.329Z,9.80
2022-10-17T04:33:28.676Z,9.80
2022-10-17T04:36:01.159Z,9.80
2022-10-17T04:38:29.601Z,9.70
2022-10-17T04:41:03.408Z,9.70
2022-10-17T04:43:36.946Z,9.70
2022-10-17T04:46:09.162Z,9.70
2022-10-17T04:48:36.391Z,9.70
2022-10-17T04:51:09.137Z,9.70
2022-10-17T04:53:37.753Z,9.70
2022-10-17T04:56:10.591Z,9.70
2022-10-17T04:58:38.765Z,9.70
2022-10-17T05:01:08.324Z,9.70
2022-10-17T05:03:36.534Z,9.70
2022-10-17T05:06:12.677Z,9.70
2022-10-17T05:08:40.315Z,9.70
2022-10-17T05:11:20.030Z,9.70
2022-10-17T05:13:58.281Z,9.70
2022-10-17T05:16:26.590Z,9.70
2022-10-17T05:18:56.868Z,9.70
2022-10-17T05:21:26.060Z,9.70
2022-10-17T05:23:53.306Z,9.70
2022-10-17T05:26:21.345Z,9.70
2022-10-17T05:28:48.554Z,9.60
2022-10-17T05:31:15.989Z,9.60
2022-10-17T05:33:43.156Z,9.60
2022-10-17T05:36:10.556Z,9.60
2022-10-17T05:38:37.643Z,9.50
2022-10-17T05:41:05.949Z,9.50
2022-10-17T05:43:34.698Z,9.50
2022-10-17T05:46:06.850Z,9.50
2022-10-17T05:48:34.740Z,9.40
2022-10-17T05:51:04.432Z,9.40
2022-10-17T05:53:33.037Z,9.50
2022-10-17T05:56:01.991Z,9.40
2022-10-17T05:58:49.364Z,9.40
2022-10-17T06:01:17.284Z,9.40
2022-10-17T06:03:44.396Z,9.40
2022-10-17T06:06:13.532Z,9.40
2022-10-17T06:08:40.685Z,9.40
2022-10-17T06:11:10.146Z,9.40
2022-10-17T06:13:38.327Z,9.40
2022-10-17T06:16:06.485Z,9.50
2022-10-17T06:18:34.308Z,9.50
2022-10-17T06:21:07.071Z,9.50
2022-10-17T06:23:34.617Z,9.50
2022-10-17T06:26:03.297Z,9.50
2022-10-17T06:28:30.954Z,9.50
2022-10-17T06:30:58.313Z,9.60
2022-10-17T06:33:25.670Z,9.50
2022-10-17T06:35:56.932Z,9.60
2022-10-17T06:38:24.467Z,9.60
2022-10-17T06:40:52.139Z,9.60
2022-10-17T06:43:19.202Z,9.70
2022-10-17T06:45:48.043Z,9.70
2022-10-17T06:48:15.435Z,9.80
2022-10-17T06:50:42.577Z,9.80
2022-10-17T06:53:09.680Z,9.90
2022-10-17T06:55:36.815Z,9.90
2022-10-17T06:58:04.096Z,10.00
2022-10-17T07:00:31.217Z,10.00
2022-10-17T07:02:58.314Z,10.10
2022-10-17T07:05:25.472Z,10.10
2022-10-17T07:07:52.609Z,10.10
2022-10-17T07:10:20.051Z,10.20
2022-10-17T07:12:47.122Z,10.20
2022-10-17T07:15:14.136Z,10.20
2022-10-17T07:17:41.240Z,10.30
2022-10-17T07:20:08.967Z,10.30
2022-10-17T07:22:36.206Z,10.40
2022-10-17T07:25:03.378Z,10.40
2022-10-17T07:27:30.765Z,10.40
2022-10-17T07:29:59.274Z,10.50
2022-10-17T07:32:26.384Z,10.60
2022-10-17T07:34:53.448Z,10.60
2022-10-17T07:37:20.511Z,10.60
2022-10-17T07:39:47.593Z,10.70
2022-10-17T07:42:14.962Z,10.70
2022-10-17T07:44:42.188Z,10.80
2022-10-17T07:47:09.470Z,10.80
2022-10-17T07:49:42.717Z,10.90
2022-10-17T07:52:14.197Z,11.00
2022-10-17T07:54:41.331Z,11.00
2022-10-17T07:57:09.099Z,11.10
2022-10-17T07:59:38.003Z,11.10
2022-10-17T08:02:06.109Z,11.20
2022-10-17T08:04:34.426Z,11.20
2022-10-17T08:07:18.314Z,11.30
2022-10-17T08:09:48.625Z,11.30
2022-10-17T08:12:16.167Z,11.40
2022-10-17T08:14:43.836Z,11.40
2022-10-17T08:17:10.984Z,11.40
2022-10-17T08:19:41.392Z,11.50
2022-10-17T08:22:09.126Z,11.60
2022-10-17T08:24:36.277Z,11.60
2022-10-17T08:27:04.160Z,11.70
2022-10-17T08:29:33.029Z,11.80
2022-10-17T08:32:01.386Z,11.80
2022-10-17T08:34:29.891Z,11.80
2022-10-17T08:36:57.021Z,11.80
2022-10-17T08:39:24.110Z,11.80
2022-10-17T08:42:26.558Z,11.90
2022-10-17T08:45:36.964Z,11.90
2022-10-17T08:48:12.715Z,12.00
2022-10-17T08:50:52.022Z,12.10
2022-10-17T08:53:25.033Z,12.10
2022-10-17T08:55:54.153Z,12.20
2022-10-17T08:58:29.352Z,12.20
2022-10-17T09:00:56.359Z,12.30
2022-10-17T09:03:32.614Z,12.30
2022-10-17T09:06:30.157Z,12.40
2022-10-17T09:09:31.143Z,12.40
2022-10-17T09:12:16.546Z,12.50
2022-10-17T09:14:51.472Z,12.40
2022-10-17T09:17:24.073Z,12.50
2022-10-17T09:20:11.477Z,12.50
2022-10-17T09:22:47.989Z,12.50
2022-10-17T09:25:19.716Z,12.50
2022-10-17T09:28:09.967Z,12.50
2022-10-17T09:30:46.368Z,12.60
2022-10-17T09:33:28.263Z,12.60
2022-10-17T09:36:05.254Z,12.70
2022-10-17T09:38:45.871Z,12.70
2022-10-17T09:44:24.278Z,12.80
2022-10-17T09:47:10.199Z,12.80
2022-10-17T09:49:43.401Z,12.80
2022-10-17T09:52:25.497Z,12.90
2022-10-17T09:55:23.431Z,12.90
2022-10-17T09:58:02.368Z,13.00
2022-10-17T10:00:32.324Z,13.00
2022-10-17T10:03:17.059Z,13.00
2022-10-17T10:05:59.098Z,13.10
2022-10-17T10:08:30.585Z,13.10
2022-10-17T10:10:58.760Z,13.10
2022-10-17T10:13:27.758Z,13.10
2022-10-17T10:16:12.484Z,13.10
2022-10-17T10:18:39.647Z,13.10
2022-10-17T10:21:20.428Z,13.10
2022-10-17T10:24:10.556Z,13.20
2022-10-17T10:26:47.785Z,13.30
2022-10-17T10:29:38.599Z,13.40
2022-10-17T10:32:23.909Z,13.40
2022-10-17T10:34:56.763Z,13.40
2022-10-17T10:37:31.054Z,13.40
2022-10-17T10:40:02.093Z,13.40
2022-10-17T10:42:33.117Z,13.50
2022-10-17T10:45:47.084Z,13.50
2022-10-17T10:48:23.970Z,13.60
2022-10-17T10:51:10.358Z,13.50
2022-10-17T10:54:03.518Z,13.50
2022-10-17T10:56:53.559Z,13.50
2022-10-17T10:59:39.696Z,13.50
2022-10-17T11:02:29.630Z,13.50
2022-10-17T11:05:18.384Z,13.50
2022-10-17T11:08:00.502Z,13.50
2022-10-17T11:10:59.315Z,13.50
2022-10-17T11:13:32.502Z,13.50
2022-10-17T11:16:25.251Z,13.40
2022-10-17T11:19:03.973Z,13.40
2022-10-17T11:24:30.243Z,13.40
2022-10-17T11:27:08.343Z,13.40
2022-10-17T11:29:39.278Z,13.40
2022-10-17T11:32:15.586Z,13.40
2022-10-17T11:34:47.826Z,13.40
2022-10-17T11:37:26.727Z,13.40
2022-10-17T11:40:00.447Z,13.40
2022-10-17T11:42:53.704Z,13.40
2022-10-17T11:45:24.183Z,13.40
2022-10-17T11:48:01.119Z,13.40
2022-10-17T11:53:34.582Z,13.50
2022-10-17T11:56:02.675Z,13.50
2022-10-17T11:59:07.206Z,13.50
2022-10-17T12:01:52.762Z,13.50
2022-10-17T12:04:49.773Z,13.50
2022-10-17T12:07:46.345Z,13.40
2022-10-17T12:10:22.216Z,13.40
2022-10-17T12:12:49.906Z,13.40
2022-10-17T12:15:26.392Z,13.40
2022-10-17T12:17:58.465Z,13.30
2022-10-17T12:20:37.399Z,13.30
2022-10-17T12:23:13.778Z,13.20
2022-10-17T12:26:01.510Z,13.20
2022-10-17T12:28:42.698Z,13.10
2022-10-17T12:31:29.598Z,13.10
2022-10-17T12:34:04.741Z,13.00
2022-10-17T12:36:31.917Z,13.00
2022-10-17T12:39:01.762Z,13.00
2022-10-17T12:41:40.966Z,12.90
2022-10-17T12:44:34.245Z,12.90
2022-10-17T12:47:10.891Z,12.90
2022-10-17T12:49:41.303Z,12.80
2022-10-17T12:52:26.314Z,12.80
2022-10-17T12:55:12.962Z,12.70
2022-10-17T12:57:57.379Z,12.70
2022-10-17T13:03:45.854Z,12.60
2022-10-17T13:06:22.551Z,12.50
2022-10-17T13:08:57.719Z,12.50
2022-10-17T13:11:30.276Z,12.40
2022-10-17T13:14:00.937Z,12.40
2022-10-17T13:16:36.683Z,12.40
2022-10-17T13:19:20.409Z,12.40
2022-10-17T13:22:06.885Z,12.40
2022-10-17T13:24:36.191Z,12.30
2022-10-17T13:27:05.540Z,12.30
2022-10-17T13:29:33.377Z,12.20
2022-10-17T13:32:04.212Z,12.20
2022-10-17T13:34:33.211Z,12.20
2022-10-17T13:37:03.281Z,12.10
2022-10-17T13:42:27.852Z,12.10
2022-10-17T13:44:55.321Z,12.00
2022-10-17T13:47:28.651Z,12.00
2022-10-17T13:49:57.016Z,12.00
2022-10-17T13:52:28.612Z,11.90
2022-10-17T13:55:06.532Z,11.90
2022-10-17T13:57:34.085Z,11.90
2022-10-17T14:00:18.578Z,11.90
2022-10-17T14:02:45.927Z,11.80
2022-10-17T14:05:20.825Z,11.90
2022-10-17T14:10:41.987Z,11.80
2022-10-17T14:13:21.784Z,11.80
2022-10-17T14:15:49.506Z,11.80
2022-10-17T14:18:28.353Z,11.80
2022-10-17T14:23:44.914Z,11.80
2022-10-17T14:26:20.320Z,11.80
2022-10-17T14:28:51.295Z,11.80
2022-10-17T14:31:25.752Z,11.80
2022-10-17T14:33:54.415Z,11.70
2022-10-17T14:36:31.239Z,11.70
2022-10-17T14:38:59.017Z,11.80
2022-10-17T14:41:44.487Z,11.80
2022-10-17T14:44:21.865Z,11.70
2022-10-17T14:46:54.892Z,11.80
2022-10-17T14:49:34.055Z,11.80
2022-10-17T14:52:18.652Z,11.80
2022-10-17T14:54:48.787Z,11.80
2022-10-17T14:57:19.433Z,11.80
2022-10-17T14:59:55.192Z,11.80
2022-10-17T15:02:24.247Z,11.80
2022-10-17T15:04:51.429Z,11.80
2022-10-17T15:07:19.714Z,11.80
2022-10-17T15:09:48.943Z,11.80
2022-10-17T15:12:19.290Z,11.80
2022-10-17T15:14:48.058Z,11.80
2022-10-17T15:17:21.040Z,11.80
2022-10-17T15:19:49.040Z,11.80
2022-10-17T15:22:16.517Z,11.80
2022-10-17T15:24:46.104Z,11.90
2022-10-17T15:27:19.476Z,11.90
2022-10-17T15:29:47.014Z,12.00
2022-10-17T15:32:14.247Z,11.90
2022-10-17T15:34:41.523Z,11.90
2022-10-17T15:37:25.406Z,11.90
2022-10-17T15:39:55.034Z,11.90
2022-10-17T15:42:31.804Z,12.00
2022-10-17T15:44:59.245Z,12.00
2022-10-17T15:47:31.465Z,12.00
2022-10-17T15:50:00.529Z,12.00
2022-10-17T15:52:28.170Z,12.00
2022-10-17T15:54:57.280Z,12.00
2022-10-17T15:57:29.899Z,12.10
2022-10-17T15:59:59.493Z,12.10
2022-10-17T16:02:27.346Z,12.10
2022-10-17T16:04:54.557Z,12.10
2022-10-17T16:07:21.984Z,12.10
2022-10-17T16:09:49.312Z,12.20
2022-10-17T16:12:25.230Z,12.20
2022-10-17T16:14:52.515Z,12.20
2022-10-17T16:17:19.787Z,12.20
2022-10-17T16:19:47.074Z,12.30
2022-10-17T16:22:25.011Z,12.30
2022-10-17T16:24:59.308Z,12.30
2022-10-17T16:27:29.512Z,12.30
2022-10-17T16:29:57.376Z,12.40
2022-10-17T16:32:25.883Z,11.90
2022-10-17T16:34:56.487Z,12.50
2022-10-17T16:37:25.570Z,12.50
2022-10-17T16:39:54.392Z,12.50
2022-10-17T16:42:23.252Z,12.50
2022-10-17T16:44:52.526Z,12.50
2022-10-17T16:47:20.895Z,12.60
2022-10-17T16:49:49.513Z,12.60
2022-10-17T16:52:17.330Z,12.70
2022-10-17T16:54:44.689Z,12.80
2022-10-17T16:57:11.840Z,12.80
2022-10-17T16:59:39.032Z,12.90
2022-10-17T17:02:06.527Z,12.90
2022-10-17T17:04:33.669Z,12.90
2022-10-17T17:07:00.805Z,13.00
2022-10-17T17:09:28.265Z,13.10
2022-10-17T17:11:55.418Z,13.10
2022-10-17T17:14:22.488Z,13.20
2022-10-17T17:16:49.585Z,13.20
2022-10-17T17:19:20.558Z,13.30
2022-10-17T17:21:51.325Z,13.30
2022-10-17T17:24:21.261Z,13.40
2022-10-17T17:26:56.265Z,13.50
2022-10-17T17:29:24.687Z,13.50
2022-10-17T17:31:52.262Z,13.60
2022-10-17T17:34:19.517Z,13.70
2022-10-17T17:36:46.567Z,13.70
2022-10-17T17:39:15.298Z,13.80
2022-10-17T17:41:43.355Z,13.80
2022-10-17T17:44:15.742Z,13.90
2022-10-17T17:46:44.289Z,14.00
2022-10-17T17:49:11.942Z,14.00
2022-10-17T17:51:41.599Z,14.10
2022-10-17T17:54:11.737Z,14.20
2022-10-17T17:56:39.214Z,14.20
2022-10-17T17:59:06.827Z,14.30
2022-10-17T18:01:39.300Z,14.30
2022-10-17T18:04:08.974Z,14.40
2022-10-17T18:06:37.749Z,14.40
2022-10-17T18:09:06.035Z,14.40
2022-10-17T18:11:36.886Z,14.50
2022-10-17T18:14:10.775Z,14.50
2022-10-17T18:16:38.210Z,14.50
2022-10-17T18:19:07.541Z,14.50
2022-10-17T18:21:35.588Z,14.50
2022-10-17T18:24:05.270Z,14.60
2022-10-17T18:26:33.103Z,14.60
2022-10-17T18:29:00.232Z,14.60
2022-10-17T18:31:36.279Z,14.60
2022-10-17T18:34:04.841Z,14.60
2022-10-17T18:36:34.637Z,14.60
2022-10-17T18:39:02.965Z,14.70
2022-10-17T18:41:30.545Z,14.70
2022-10-17T18:43:58.287Z,14.70
2022-10-17T18:46:31.226Z,14.70
2022-10-17T18:48:59.080Z,14.70
2022-10-17T18:51:30.148Z,14.70
2022-10-17T18:54:03.516Z,14.80
2022-10-17T18:56:35.404Z,14.80
2022-10-17T18:59:02.581Z,14.80
2022-10-17T19:01:30.103Z,14.80
2022-10-17T19:04:01.075Z,14.80
2022-10-17T19:06:32.229Z,14.80
2022-10-17T19:09:04.447Z,14.90
2022-10-17T19:11:36.027Z,14.90
2022-10-17T19:14:05.362Z,14.90
2022-10-17T19:16:37.365Z,14.90
2022-10-17T19:19:12.306Z,14.90
2022-10-17T19:21:40.476Z,14.90
2022-10-17T19:24:14.089Z,14.90
2022-10-17T19:26:42.673Z,15.00
2022-10-17T19:29:13.156Z,15.00
2022-10-17T19:31:44.961Z,15.00
2022-10-17T19:34:13.848Z,15.00
2022-10-17T19:36:41.774Z,15.00
2022-10-17T19:39:18.846Z,15.00
2022-10-17T19:41:49.692Z,15.00
2022-10-17T19:44:20.519Z,15.00
2022-10-17T19:46:52.230Z,15.00
2022-10-17T19:49:19.679Z,15.00
2022-10-17T19:51:47.559Z,15.00
2022-10-17T19:54:18.349Z,15.00
2022-10-17T19:56:45.801Z,15.00
2022-10-17T19:59:16.504Z,15.00
2022-10-17T20:01:44.984Z,15.00
2022-10-17T20:04:13.021Z,15.00
2022-10-17T20:06:41.376Z,14.90
2022-10-17T20:09:12.379Z,14.90
2022-10-17T20:11:42.980Z,14.90
2022-10-17T20:14:10.130Z,14.90
2022-10-17T20:16:37.667Z,14.90
2022-10-17T20:19:08.977Z,14.90
2022-10-17T20:21:37.520Z,14.90
2022-10-17T20:24:07.208Z,14.90
2022-10-17T20:26:39.416Z,14.90
2022-10-17T20:29:11.714Z,14.80
2022-10-17T20:31:48.377Z,14.80
2022-10-17T20:34:17.213Z,14.80
2022-10-17T20:36:44.633Z,14.80
2022-10-17T20:39:17.223Z,14.80
2022-10-17T20:41:45.421Z,14.70
2022-10-17T20:44:13.602Z,14.70
2022-10-17T20:46:48.732Z,14.70
2022-10-17T20:49:24.865Z,14.70
2022-10-17T20:51:52.083Z,14.60
2022-10-17T20:54:19.165Z,14.60
2022-10-17T20:56:46.221Z,14.60
2022-10-17T20:59:16.632Z,14.60
2022-10-17T21:01:45.194Z,14.60
2022-10-17T21:04:45.396Z,14.50
2022-10-17T21:07:00.295Z,14.50
2022-10-17T21:09:27.404Z,14.50
2022-10-17T21:11:56.061Z,14.50
2022-10-17T21:14:24.798Z,14.50
2022-10-17T21:16:52.566Z,14.40
2022-10-17T21:19:22.259Z,14.50
2022-10-17T21:21:49.656Z,14.50
2022-10-17T21:24:19.343Z,14.40
2022-10-17T21:26:48.212Z,14.40
2022-10-17T21:29:16.120Z,14.40
2022-10-17T21:31:45.211Z,14.30
2022-10-17T21:34:18.961Z,14.30
2022-10-17T21:36:46.529Z,14.20
2022-10-17T21:39:15.514Z,14.10
2022-10-17T21:41:44.014Z,14.10
2022-10-17T21:44:16.450Z,14.10
2022-10-17T21:46:47.480Z,14.00
2022-10-17T21:49:19.009Z,14.00
2022-10-17T21:51:47.853Z,14.00
2022-10-17T21:54:16.216Z,13.90
2022-10-17T21:56:43.478Z,13.80
2022-10-17T21:59:11.095Z,13.80
2022-10-17T22:01:41.125Z,13.80
2022-10-17T22:04:12.568Z,13.80
2022-10-17T22:06:44.804Z,13.80
2022-10-17T22:09:24.382Z,13.80
2022-10-17T22:11:54.645Z,13.70
2022-10-17T22:14:23.283Z,13.70
2022-10-17T22:16:51.503Z,13.70
2022-10-17T22:19:22.679Z,13.70
2022-10-17T22:21:53.995Z,13.70
2022-10-17T22:24:22.586Z,13.60
2022-10-17T22:26:50.202Z,13.60
2022-10-17T22:29:18.041Z,13.60
2022-10-17T22:31:49.503Z,13.60
2022-10-17T22:34:17.118Z,13.60
2022-10-17T22:36:44.785Z,13.60
2022-10-17T22:39:12.087Z,13.60
2022-10-17T22:41:39.526Z,13.50
2022-10-17T22:44:07.335Z,13.50
2022-10-17T22:46:34.452Z,13.40
2022-10-17T22:49:01.895Z,13.30
2022-10-17T22:51:29.059Z,13.20
2022-10-17T22:53:56.271Z,13.20
2022-10-17T22:56:23.814Z,13.10
2022-10-17T22:58:51.366Z,13.10
2022-10-17T23:01:25.594Z,13.10
2022-10-17T23:03:53.436Z,13.10
2022-10-17T23:06:22.017Z,13.00
2022-10-17T23:08:49.814Z,13.00
2022-10-17T23:11:17.294Z,13.00
2022-10-17T23:13:44.383Z,13.00
2022-10-17T23:16:11.648Z,13.00
2022-10-17T23:18:39.373Z,13.10
2022-10-17T23:21:07.000Z,13.10
2022-10-17T23:23:34.237Z,13.10
2022-10-17T23:26:10.396Z,13.10
2022-10-17T23:28:40.586Z,13.20
2022-10-17T23:31:19.310Z,13.20
2022-10-17T23:33:47.654Z,13.20
2022-10-17T23:36:17.424Z,13.20
2022-10-17T23:38:45.739Z,13.20
2022-10-17T23:41:13.465Z,13.20
2022-10-17T23:43:41.033Z,13.20
2022-10-17T23:46:08.911Z,13.20
2022-10-17T23:48:36.387Z,13.20
2022-10-17T23:51:04.609Z,13.30
2022-10-17T23:53:31.963Z,13.20
2022-10-17T23:55:59.229Z,13.20
2022-10-17T23:58:26.364Z,13.20
